Time;durP1;ratioP1;P1;durP2;ratioP2;P2;SDS_P1;SDS_P2;PMS_P1;PMS_P2;Temp;Humidity;BMP_temperature;BMP_pressure;BME280_temperature;BME280_humidity;BME280_pressure;Samples;Min_cycle;Max_cycle;Signal;HPM_P1;HPM_P2
2022/03/16 00:01:50;;;;;;;19.62;7.97;;;;;;;12.10;24.11;100222.44;7736531;32;40643;-75
2022/03/16 00:06:07;;;;;;;14.35;8.07;;;;;;;12.72;23.82;100212.31;7736225;32;38828;-75
2022/03/16 00:10:23;;;;;;;15.27;8.23;;;;;;;12.67;23.82;100203.31;7738273;32;37941;-76
2022/03/16 00:14:39;;;;;;;15.55;8.10;;;;;;;12.45;23.87;100207.13;7739650;32;40137;-76
2022/03/16 00:18:55;;;;;;;14.30;8.18;;;;;;;12.47;23.87;100193.19;7739460;32;40021;-77
2022/03/16 00:23:11;;;;;;;14.20;7.68;;;;;;;12.18;24.34;100194.56;7739495;32;37983;-77
2022/03/16 00:27:27;;;;;;;15.73;8.07;;;;;;;12.10;24.57;100188.84;7739167;32;37815;-76
2022/03/16 00:31:43;;;;;;;14.73;8.45;;;;;;;12.24;24.51;100192.66;7739369;32;40058;-76
2022/03/16 00:35:59;;;;;;;14.82;8.05;;;;;;;12.26;24.71;100178.72;7739347;32;40094;-76
2022/03/16 00:40:15;;;;;;;15.60;8.10;;;;;;;12.18;24.78;100182.84;7739092;32;37901;-76
2022/03/16 00:44:35;;;;;;;17.33;7.70;;;;;;;12.09;24.76;100171.63;7739288;32;37071;-76
2022/03/16 00:48:52;;;;;;;15.93;7.68;;;;;;;12.14;25.17;100174.34;7738998;32;39301;-76
2022/03/16 00:53:08;;;;;;;16.80;8.02;;;;;;;12.28;25.09;100179.25;7739123;32;40920;-75
2022/03/16 00:57:24;;;;;;;18.33;7.45;;;;;;;12.16;26.77;100182.28;7737871;32;38774;-76
2022/03/16 01:01:40;;;;;;;13.55;7.18;;;;;;;12.10;27.79;100183.37;7739289;32;37398;-76
2022/03/16 01:05:56;;;;;;;16.85;8.15;;;;;;;12.10;28.60;100183.37;7739123;32;40140;-76
2022/03/16 01:10:12;;;;;;;16.15;7.70;;;;;;;12.05;28.65;100195.09;7738455;32;40101;-76
2022/03/16 01:14:29;;;;;;;15.27;8.27;;;;;;;11.93;28.12;100209.00;7739017;32;38403;-76
2022/03/16 01:18:45;;;;;;;14.82;8.05;;;;;;;11.75;28.35;100231.38;7738451;32;37985;-76
2022/03/16 01:23:01;;;;;;;16.02;7.28;;;;;;;11.50;28.04;100251.19;7738882;32;39336;-76
2022/03/16 01:27:17;;;;;;;21.10;8.23;;;;;;;11.43;27.83;100260.47;7738738;32;40708;-76
2022/03/16 01:31:36;;;;;;;15.85;7.78;;;;;;;11.46;27.88;100261.84;7738737;32;37791;-76
2022/03/16 01:35:52;;;;;;;15.68;7.70;;;;;;;11.72;28.20;100261.94;7737495;32;37053;-76
2022/03/16 01:40:09;;;;;;;15.35;7.78;;;;;;;11.65;28.41;100254.81;7737126;32;40180;-76
2022/03/16 01:45:03;;;;;;;20.48;8.82;;;;;;;11.71;27.83;100263.03;7738683;32;40096;-76
2022/03/16 01:49:20;;;;;;;14.63;8.05;;;;;;;11.44;28.07;100259.38;7707438;32;38665;-76
2022/03/16 01:53:36;;;;;;;16.98;9.00;;;;;;;11.39;28.31;100236.69;7724735;32;36973;-76
2022/03/16 01:57:52;;;;;;;15.70;8.85;;;;;;;11.43;29.43;100229.59;7737262;32;40061;-76
2022/03/16 02:02:09;;;;;;;16.87;9.35;;;;;;;11.43;29.79;100224.97;7738165;32;39962;-76
2022/03/16 02:06:25;;;;;;;17.12;8.95;;;;;;;11.32;32.60;100226.00;7738134;32;38830;-76
2022/03/16 02:10:41;;;;;;;16.70;9.02;;;;;;;11.30;32.59;100219.16;7738202;32;37157;-75
2022/03/16 02:14:57;;;;;;;16.35;9.40;;;;;;;11.41;34.13;100205.28;7738356;32;39266;-75
2022/03/16 02:19:14;;;;;;;20.05;9.05;;;;;;;11.34;33.51;100203.91;7738128;32;39589;-75
2022/03/16 02:23:30;;;;;;;19.08;9.00;;;;;;;11.27;33.71;100199.50;7738032;32;38771;-76
2022/03/16 02:27:46;;;;;;;14.38;8.73;;;;;;;11.54;33.62;100194.97;7738142;32;37030;-76
2022/03/16 02:32:02;;;;;;;18.10;8.43;;;;;;;11.56;35.36;100179.97;7737200;32;39864;-77
2022/03/16 02:36:19;;;;;;;18.23;10.23;;;;;;;11.78;37.80;100170.72;7737660;32;40944;-76
2022/03/16 02:40:35;;;;;;;15.88;9.45;;;;;;;11.57;38.48;100159.78;7737910;32;38721;-76
2022/03/16 02:44:51;;;;;;;17.62;10.10;;;;;;;11.46;37.67;100153.44;7737934;32;37924;-76
2022/03/16 02:49:07;;;;;;;18.33;10.50;;;;;;;11.45;38.18;100142.78;7737656;32;40112;-75
2022/03/16 02:53:23;;;;;;;16.40;10.68;;;;;;;11.41;39.48;100133.50;7737749;32;40850;-76
2022/03/16 02:57:42;;;;;;;15.95;10.18;;;;;;;11.30;45.68;100115.44;7736189;32;38709;-75
2022/03/16 03:01:58;;;;;;;19.45;10.60;;;;;;;11.20;47.25;100092.50;7737713;32;37249;-76
2022/03/16 03:06:14;;;;;;;18.85;9.63;;;;;;;11.07;46.99;100073.91;7737259;32;39316;-76
2022/03/16 03:10:30;;;;;;;18.40;10.25;;;;;;;10.89;47.33;100054.19;7737567;32;40723;-76
2022/03/16 03:14:46;;;;;;;18.77;11.12;;;;;;;11.02;46.95;100049.31;7736037;32;38487;-76
2022/03/16 03:19:03;;;;;;;18.10;10.95;;;;;;;10.81;48.39;100038.34;7737459;32;36872;-76
2022/03/16 03:23:19;;;;;;;24.23;10.52;;;;;;;11.17;48.48;100038.47;7737481;32;39988;-75
2022/03/16 03:27:35;;;;;;;16.48;9.55;;;;;;;11.19;49.00;100028.13;7737148;32;40230;-76
2022/03/16 03:31:51;;;;;;;18.90;9.88;;;;;;;10.90;49.13;100028.59;7737108;32;38842;-76
2022/03/16 03:36:07;;;;;;;23.17;11.23;;;;;;;10.76;49.19;100010.25;7737044;32;37257;-75
2022/03/16 03:40:23;;;;;;;16.50;10.50;;;;;;;10.48;50.75;100013.13;7737012;32;39318;-76
2022/03/16 03:44:39;;;;;;;19.45;10.15;;;;;;;10.30;48.89;100008.12;7736629;32;41014;-75
2022/03/16 03:48:55;;;;;;;20.33;10.18;;;;;;;10.05;46.90;100011.50;7966431;26;38001;-75
2022/03/16 03:53:11;;;;;;;16.65;10.10;;;;;;;9.93;47.01;100011.72;7736392;32;37813;-76
2022/03/16 03:57:27;;;;;;;20.15;10.25;;;;;;;9.77;46.79;100008.88;7736561;32;39299;-75
2022/03/16 04:01:43;;;;;;;16.77;10.30;;;;;;;9.76;46.55;99999.09;7736181;32;39953;-76
2022/03/16 04:06:00;;;;;;;21.73;10.18;;;;;;;9.74;45.73;99994.97;7735870;32;37947;-76
2022/03/16 04:10:17;;;;;;;19.62;10.18;;;;;;;9.66;45.05;99995.44;7736205;32;37483;-76
2022/03/16 04:14:33;;;;;;;16.87;9.75;;;;;;;9.58;45.40;99988.59;7736112;32;40146;-76
2022/03/16 04:18:50;;;;;;;16.50;10.30;;;;;;;9.70;45.25;99969.34;7736067;32;40100;-76
2022/03/16 04:23:06;;;;;;;19.55;10.77;;;;;;;9.83;44.55;99968.06;7735758;32;38090;-76
2022/03/16 04:27:23;;;;;;;19.87;10.10;;;;;;;9.58;44.52;99983.97;7735342;32;37323;-76
2022/03/16 04:31:39;;;;;;;16.95;10.50;;;;;;;9.54;44.68;99960.25;7722053;32;40256;-76
2022/03/16 04:35:55;;;;;;;21.40;9.80;;;;;;;9.53;43.95;99970.31;7735325;32;40174;-75
2022/03/16 04:40:12;;;;;;;19.12;10.73;;;;;;;9.56;44.24;99985.31;7735511;32;37913;-76
2022/03/16 04:44:28;;;;;;;18.83;10.57;;;;;;;9.74;43.61;99986.78;7735387;32;38088;-76
2022/03/16 04:48:44;;;;;;;21.27;10.70;;;;;;;9.58;45.14;99994.03;7735298;32;39784;-76
2022/03/16 04:53:00;;;;;;;19.75;11.38;;;;;;;9.50;45.76;99997.22;7735016;32;39750;-76
2022/03/16 04:57:16;;;;;;;23.50;10.77;;;;;;;9.40;45.73;100031.44;7729031;32;37620;-76
2022/03/16 05:01:32;;;;;;;18.87;11.12;;;;;;;9.59;46.12;100028.34;7739294;32;37319;-76
2022/03/16 05:05:49;;;;;;;23.73;13.25;;;;;;;9.62;45.65;100049.59;7738918;32;40033;-76
2022/03/16 05:10:09;;;;;;;21.67;12.18;;;;;;;9.44;49.49;100071.75;7739012;32;40005;-76
2022/03/16 05:14:25;;;;;;;27.65;13.43;;;;;;;9.47;51.22;100072.06;7738774;32;38734;-76
2022/03/16 05:18:44;;;;;;;19.60;12.37;;;;;;;9.70;52.20;100062.72;7739041;32;37383;-76
2022/03/16 05:23:00;;;;;;;23.35;12.82;;;;;;;9.39;53.24;100069.78;7738988;32;39146;-76
2022/03/16 05:27:19;;;;;;;23.60;13.32;;;;;;;9.20;53.42;100085.66;7738701;32;39620;-76
2022/03/16 05:31:35;;;;;;;19.62;12.55;;;;;;;9.14;51.66;100081.22;7738675;32;38085;-76
2022/03/16 05:35:51;;;;;;;26.17;14.18;;;;;;;9.21;54.89;100088.13;7738152;32;37948;-76
2022/03/16 05:40:09;;;;;;;22.30;13.35;;;;;;;9.13;55.28;100090.47;7738599;32;40058;-76
2022/03/16 05:44:25;;;;;;;22.55;13.32;;;;;;;9.05;55.66;100085.47;7738601;32;40869;-76
2022/03/16 05:48:41;;;;;;;21.62;12.88;;;;;;;8.53;57.85;100100.31;7738447;32;38950;-76
2022/03/16 05:53:02;;;;;;;20.25;12.23;;;;;;;8.86;56.45;100096.66;7737736;32;37159;-74
2022/03/16 05:57:18;;;;;;;22.20;13.25;;;;;;;8.90;56.22;100103.25;7738414;32;39468;-75
2022/03/16 06:01:34;;;;;;;23.15;13.32;;;;;;;8.77;56.84;100109.88;7738188;32;40822;-75
2022/03/16 06:05:50;;;;;;;23.00;13.70;;;;;;;8.87;56.32;100111.09;7736962;32;37792;-74
2022/03/16 06:10:08;;;;;;;23.60;12.82;;;;;;;8.79;57.35;100118.59;7738405;32;37779;-73
2022/03/16 06:14:24;;;;;;;21.25;13.05;;;;;;;8.79;57.29;100120.50;7738297;32;39139;-75
2022/03/16 06:18:41;;;;;;;21.50;12.73;;;;;;;8.85;56.11;100124.94;7738183;32;40846;-75
2022/03/16 06:22:57;;;;;;;19.87;11.88;;;;;;;8.78;56.24;100122.41;7738340;32;38018;-74
2022/03/16 06:27:13;;;;;;;21.25;12.48;;;;;;;8.93;55.42;100119.06;7737823;32;37833;-75
2022/03/16 06:31:29;;;;;;;21.37;12.60;;;;;;;8.51;57.21;100127.75;7737408;32;37827;-73
2022/03/16 06:35:45;;;;;;;21.40;13.25;;;;;;;8.57;56.53;100132.19;7737708;32;40027;-76
2022/03/16 06:40:01;;;;;;;23.55;12.70;;;;;;;8.64;55.75;100132.84;7737870;32;38380;-75
2022/03/16 06:44:17;;;;;;;22.37;12.43;;;;;;;8.68;56.13;100141.31;7738056;32;37453;-76
2022/03/16 06:48:33;;;;;;;21.95;12.77;;;;;;;8.53;56.39;100144.63;7737846;32;39375;-76
2022/03/16 06:52:49;;;;;;;22.48;13.35;;;;;;;8.24;57.47;100144.72;7737190;32;40742;-76
2022/03/16 06:57:05;;;;;;;20.62;13.93;;;;;;;8.17;57.29;100138.59;7736909;32;37983;-76
2022/03/16 07:01:41;;;;;;;25.50;13.45;;;;;;;8.39;57.27;100146.00;7736799;32;37557;-76
2022/03/16 07:05:58;;;;;;;19.90;13.65;;;;;;;8.11;58.39;100139.59;7737435;32;39494;-76
2022/03/16 07:10:14;;;;;;;23.40;14.27;;;;;;;8.33;58.38;100144.28;7737329;32;40764;-76
2022/03/16 07:14:32;;;;;;;23.40;13.93;;;;;;;8.39;57.55;100146.00;7737129;32;38127;-75
2022/03/16 07:18:49;;;;;;;24.30;13.88;;;;;;;8.30;59.56;100155.66;7734923;32;38288;-75
2022/03/16 07:23:12;;;;;;;22.77;13.13;;;;;;;8.33;58.32;100164.12;7736519;32;39091;-75
2022/03/16 07:27:28;;;;;;;18.77;13.13;;;;;;;8.56;57.33;100170.47;7737035;32;39990;-75
2022/03/16 07:31:44;;;;;;;21.98;13.93;;;;;;;8.76;57.19;100164.50;7737027;32;38750;-75
2022/03/16 07:36:00;;;;;;;20.17;12.98;;;;;;;8.81;56.58;100172.72;7735578;32;37309;-76
2022/03/16 07:40:16;;;;;;;23.45;14.00;;;;;;;8.67;56.35;100179.59;7731652;32;39486;-78
2022/03/16 07:44:32;;;;;;;23.25;13.88;;;;;;;8.74;55.84;100174.81;7706029;32;40911;-78
2022/03/16 07:48:49;;;;;;;23.92;14.00;;;;;;;8.88;55.63;100172.56;7723372;32;38779;-78
2022/03/16 07:53:06;;;;;;;23.92;13.62;;;;;;;8.73;55.83;100178.63;7708917;32;37342;-79
2022/03/16 07:57:22;;;;;;;22.15;14.27;;;;;;;8.63;57.06;100179.28;7709170;32;39986;-78
2022/03/16 08:01:39;;;;;;;24.08;15.25;;;;;;;8.70;56.80;100184.53;7708487;32;39830;-79
2022/03/16 08:05:55;;;;;;;21.35;14.27;;;;;;;8.64;57.27;100189.91;7732214;32;38741;-78
2022/03/16 08:10:11;;;;;;;25.65;15.00;;;;;;;8.80;57.28;100199.09;7735648;32;38171;-78
2022/03/16 08:14:27;;;;;;;23.23;14.50;;;;;;;8.79;57.48;100192.00;7735235;32;39361;-78
2022/03/16 08:18:44;;;;;;;25.98;15.43;;;;;;;8.87;57.16;100201.66;7735456;32;41534;-78
2022/03/16 08:23:00;;;;;;;23.85;15.55;;;;;;;8.76;57.17;100202.56;7720280;32;38201;-79
2022/03/16 08:27:37;;;;;;;27.08;15.55;;;;;;;8.88;56.51;100203.28;7722244;32;37575;-78
2022/03/16 08:31:54;;;;;;;23.10;14.95;;;;;;;8.75;57.63;100203.66;7711921;32;40044;-77
2022/03/16 08:36:11;;;;;;;23.42;15.10;;;;;;;8.77;58.26;100217.81;7736270;32;40020;-78
2022/03/16 08:40:27;;;;;;;26.73;15.77;;;;;;;8.78;57.99;100225.72;7724491;32;38027;-78
2022/03/16 08:44:45;;;;;;;24.15;15.93;;;;;;;8.71;58.02;100235.09;7706968;32;139385;-79
2022/03/16 08:49:01;;;;;;;27.85;15.95;;;;;;;8.89;57.45;100236.75;7738237;32;39348;-78
2022/03/16 08:53:17;;;;;;;26.92;16.67;;;;;;;8.70;58.20;100249.78;7731965;32;39840;-78
2022/03/16 08:57:33;;;;;;;28.75;17.00;;;;;;;8.72;58.56;100250.34;7737369;32;38758;-78
2022/03/16 09:01:50;;;;;;;25.65;16.55;;;;;;;8.59;59.36;100252.34;7719957;32;37909;-79
2022/03/16 09:06:07;;;;;;;25.73;16.55;;;;;;;8.80;58.54;100260.81;7737317;32;40178;-78
2022/03/16 09:10:23;;;;;;;29.00;18.08;;;;;;;8.73;58.22;100271.03;7738163;32;40026;-78
2022/03/16 09:14:39;;;;;;;28.75;19.08;;;;;;;8.09;60.02;100274.81;7737924;32;38037;-78
2022/03/16 09:18:55;;;;;;;28.83;17.73;;;;;;;8.41;58.98;100282.44;7738170;32;37992;-78
2022/03/16 09:23:11;;;;;;;28.38;18.50;;;;;;;8.24;59.50;100288.69;7737453;32;39345;-78
2022/03/16 09:27:27;;;;;;;29.75;18.17;;;;;;;8.08;60.05;100292.97;7737245;32;39997;-78
2022/03/16 09:31:44;;;;;;;24.63;17.27;;;;;;;7.98;60.67;100297.41;7737769;32;38016;-78
2022/03/16 09:36:03;;;;;;;27.90;16.33;;;;;;;7.87;60.83;100299.91;7737574;32;37170;-79
2022/03/16 09:40:19;;;;;;;25.80;16.75;;;;;;;8.15;60.16;100313.75;7723920;32;40210;-79
2022/03/16 09:44:36;;;;;;;24.60;16.40;;;;;;;8.17;60.36;100312.41;7737480;32;40672;-78
2022/03/16 09:48:54;;;;;;;25.85;15.90;;;;;;;8.28;60.00;100308.84;7723619;32;38409;-79
2022/03/16 09:53:15;;;;;;;27.95;16.58;;;;;;;7.85;62.04;100314.81;7710760;32;38006;-78
2022/03/16 09:57:32;;;;;;;25.40;15.38;;;;;;;8.09;61.21;100310.94;7697599;32;39304;-79
2022/03/16 10:01:56;;;;;;;25.42;16.52;;;;;;;8.20;60.64;100317.38;7711045;32;40102;-78
2022/03/16 10:06:14;;;;;;;22.52;14.68;;;;;;;8.24;60.45;100312.28;7683878;32;38011;-78
2022/03/16 10:15:10;;;;;;;25.60;15.90;;;;;;;8.56;59.19;100315.34;7684734;32;39089;-79
2022/03/16 10:19:26;;;;;;;21.35;15.32;;;;;;;8.64;58.91;100323.09;7684966;32;39715;-79
2022/03/16 10:23:43;;;;;;;26.37;15.07;;;;;;;8.61;59.26;100322.75;7685027;32;38543;-79
2022/03/16 10:28:10;;;;;;;21.87;15.05;;;;;;;8.49;59.01;100333.69;7684658;32;37913;-78
2022/03/16 10:32:26;;;;;;;23.25;14.57;;;;;;;8.76;58.75;100343.91;7687207;32;38636;-78
2022/03/16 10:36:43;;;;;;;24.67;14.87;;;;;;;8.86;57.99;100344.09;7711018;32;39901;-79
2022/03/16 10:46:34;;;;;;;28.40;18.40;;;;;;;8.58;58.30;100339.53;7710940;32;38752;-79
2022/03/16 10:50:25;;;;;;;26.90;18.87;;;;;;;8.40;61.64;100354.12;7693868;32;40314;-78
2022/03/16 10:54:43;;;;;;;31.95;19.02;;;;;;;8.34;61.60;100349.69;7709998;32;39733;-78
2022/03/16 10:59:01;;;;;;;28.60;19.10;;;;;;;8.37;61.36;100349.19;7710828;32;38168;-78
2022/03/16 11:03:19;;;;;;;26.15;17.33;;;;;;;8.62;61.10;100355.13;7720502;32;37500;-77
2022/03/16 11:07:36;;;;;;;29.08;17.12;;;;;;;8.31;61.02;100361.03;7724332;32;39256;-78
2022/03/16 11:16:26;;;;;;;27.02;17.42;;;;;;;8.27;61.11;100366.94;7737537;32;37606;-78
2022/03/16 11:20:44;;;;;;;30.35;17.50;;;;;;;8.55;60.14;100373.47;7723813;32;37329;-78
2022/03/16 11:25:11;;;;;;;27.40;16.73;;;;;;;8.21;60.27;100381.50;7723894;32;39920;-78
2022/03/16 11:29:49;;;;;;;27.62;16.75;;;;;;;8.44;60.43;100385.22;7737319;32;40882;-78
2022/03/16 11:34:10;;;;;;;27.25;16.55;;;;;;;8.59;60.22;100393.66;7736823;32;38754;-79
2022/03/16 11:38:30;;;;;;;26.55;17.05;;;;;;;8.83;59.26;100393.56;7737099;32;38044;-79
2022/03/16 11:43:04;;;;;;;28.95;18.27;;;;;;;8.44;60.81;100404.25;7704978;32;39152;-79
2022/03/16 11:47:23;;;;;;;27.17;16.62;;;;;;;8.57;60.09;100403.97;7682667;32;39698;-77
2022/03/16 11:51:55;;;;;;;30.40;17.52;;;;;;;8.67;60.22;100414.19;7682758;32;38703;-79
2022/03/16 11:56:43;;;;;;;35.50;18.50;;;;;;;8.94;59.44;100425.25;7670782;32;37922;-79
2022/03/16 12:01:34;;;;;;;31.40;16.50;;;;;;;9.00;59.18;100428.88;7677189;32;39288;-79
2022/03/16 12:05:59;;;;;;;27.75;16.70;;;;;;;9.16;58.43;100430.81;7710849;32;40044;-79
2022/03/16 12:10:16;;;;;;;29.83;17.27;;;;;;;9.31;57.59;100432.12;7698667;32;37909;-80
2022/03/16 12:14:32;;;;;;;26.33;16.15;;;;;;;9.13;58.62;100439.47;7711481;32;37977;-79
2022/03/16 12:18:48;;;;;;;23.85;14.95;;;;;;;9.05;58.53;100444.47;7711402;32;39844;-79
2022/03/16 12:23:10;;;;;;;26.45;16.30;;;;;;;9.11;58.07;100452.50;7712633;32;39663;-79
2022/03/16 12:32:02;;;;;;;26.85;16.58;;;;;;;9.16;57.95;100432.72;7702612;32;37492;-79
2022/03/16 12:36:21;;;;;;;31.12;18.55;;;;;;;8.37;61.13;100422.56;7717561;32;39822;-79
2022/03/16 12:45:13;;;;;;;25.92;16.87;;;;;;;9.03;59.10;100431.94;7712572;32;38103;-73
2022/03/16 12:49:31;;;;;;;25.48;15.98;;;;;;;9.37;58.13;100422.97;7712282;32;37950;-78
2022/03/16 12:53:48;;;;;;;26.75;15.10;;;;;;;9.53;58.09;100415.88;7712307;32;41072;-77
2022/03/16 12:58:05;;;;;;;19.75;12.63;;;;;;;9.89;55.80;100413.66;7712240;32;39652;-76
2022/03/16 13:02:23;;;;;;;21.15;13.32;;;;;;;10.07;55.18;100428.84;7712139;32;38112;-76
2022/03/16 13:06:41;;;;;;;22.02;14.10;;;;;;;10.03;55.59;100444.06;7712385;32;36336;-75
2022/03/16 13:11:16;;;;;;;21.92;13.88;;;;;;;10.10;54.67;100437.34;7698377;32;39296;-78
2022/03/16 13:15:33;;;;;;;28.40;17.55;;;;;;;10.04;55.15;100434.84;7711667;32;40930;-77
2022/03/16 13:19:52;;;;;;;27.98;15.50;;;;;;;9.58;56.81;100454.88;7711953;32;38568;-76
2022/03/16 13:24:10;;;;;;;27.00;16.50;;;;;;;9.47;56.72;100457.69;7702014;32;37813;-77
2022/03/16 13:28:26;;;;;;;25.40;15.95;;;;;;;9.50;56.57;100462.62;7684647;32;39310;-77
2022/03/16 13:32:44;;;;;;;26.52;15.73;;;;;;;9.55;55.90;100465.44;7682866;32;40569;-77
2022/03/16 13:37:01;;;;;;;19.50;12.00;;;;;;;9.30;56.74;100469.41;7684430;32;38124;-76
2022/03/16 13:41:17;;;;;;;20.05;13.18;;;;;;;9.61;55.25;100472.62;7684866;32;38026;-76
2022/03/16 13:45:47;;;;;;;22.20;13.25;;;;;;;9.52;54.94;100485.81;7684270;32;39426;-77
2022/03/16 13:50:04;;;;;;;25.20;15.73;;;;;;;9.52;55.55;100491.25;7685025;32;40814;-77
2022/03/16 13:54:26;;;;;;;30.88;15.88;;;;;;;9.39;56.90;100491.59;7683823;32;37855;-76
2022/03/16 13:58:43;;;;;;;26.52;16.00;;;;;;;9.13;58.08;100491.16;7683561;32;37647;-77
2022/03/16 14:03:07;;;;;;;23.70;15.15;;;;;;;9.14;58.04;100500.12;7700247;32;39517;-77
2022/03/16 14:07:29;;;;;;;24.50;15.77;;;;;;;9.02;57.86;100498.31;7694742;32;40808;-77
2022/03/16 14:11:49;;;;;;;23.87;15.40;;;;;;;9.26;57.34;100502.78;7688033;32;38801;-78
2022/03/16 14:16:12;;;;;;;24.23;14.98;;;;;;;9.25;57.65;100506.59;7710128;32;37291;-78
2022/03/16 14:20:33;;;;;;;21.33;14.05;;;;;;;9.48;57.08;100511.87;7706310;32;40217;-77
2022/03/16 14:24:49;;;;;;;23.00;14.52;;;;;;;9.43;56.46;100503.62;7697025;32;39983;-76
2022/03/16 14:29:05;;;;;;;23.00;14.43;;;;;;;9.80;55.56;100513.22;7709883;32;38252;-77
2022/03/16 14:33:24;;;;;;;20.35;13.52;;;;;;;10.25;54.46;100521.22;7711017;32;37901;-77
2022/03/16 14:37:40;;;;;;;22.70;14.48;;;;;;;10.30;53.45;100512.28;7710417;32;40187;-77
2022/03/16 14:41:56;;;;;;;20.83;13.23;;;;;;;10.45;53.63;100520.69;7711095;32;40680;-77
2022/03/16 14:46:14;;;;;;;18.08;12.55;;;;;;;10.62;53.61;100523.34;7709024;32;38838;-78
2022/03/16 14:50:31;;;;;;;19.25;12.18;;;;;;;10.39;53.71;100527.16;7710438;32;37166;-78
2022/03/16 14:54:47;;;;;;;20.98;12.55;;;;;;;11.07;50.76;100518.66;7710388;32;40090;-78
2022/03/16 14:59:03;;;;;;;16.52;11.27;;;;;;;10.89;51.09;100526.09;7710544;32;40607;-78
2022/03/16 15:03:19;;;;;;;14.52;8.88;;;;;;;10.96;50.58;100533.28;7710251;32;38808;-78
2022/03/16 15:07:35;;;;;;;13.73;8.98;;;;;;;11.28;48.23;100536.06;7696198;32;37872;-78
2022/03/16 15:11:51;;;;;;;13.35;8.73;;;;;;;11.38;47.96;100533.44;7696269;32;40021;-78
2022/03/16 15:16:07;;;;;;;12.70;8.38;;;;;;;11.47;49.04;100533.78;7709766;32;39882;-78
2022/03/16 15:20:23;;;;;;;12.57;8.20;;;;;;;11.67;47.15;100518.66;7710085;32;37890;-78
2022/03/16 15:24:39;;;;;;;14.45;8.82;;;;;;;10.88;48.17;100531.81;7709941;32;37388;-78
2022/03/16 15:28:56;;;;;;;13.27;8.95;;;;;;;11.15;48.15;100537.28;7709685;32;39463;-77
2022/03/16 15:33:12;;;;;;;12.57;9.05;;;;;;;11.36;47.42;100537.50;7709329;32;39977;-77
2022/03/16 15:37:28;;;;;;;14.98;9.98;;;;;;;10.41;49.37;100537.78;7709089;32;38006;-76
2022/03/16 15:46:20;;;;;;;16.17;9.30;;;;;;;10.56;49.35;100542.63;7709527;32;39019;-77
2022/03/16 15:50:56;;;;;;;15.75;9.93;;;;;;;10.67;49.28;100544.41;7708239;32;40004;-77
2022/03/16 15:55:13;;;;;;;16.60;9.88;;;;;;;10.75;49.03;100543.97;7704381;32;37954;-75
2022/03/16 15:59:31;;;;;;;16.58;11.00;;;;;;;10.55;49.43;100546.44;7682090;32;37114;-77
2022/03/16 16:03:47;;;;;;;16.23;10.32;;;;;;;10.26;50.02;100546.53;7683078;32;40032;-78
2022/03/16 16:08:04;;;;;;;16.27;11.05;;;;;;;10.79;49.09;100553.25;7690334;32;40901;-77
2022/03/16 16:12:20;;;;;;;15.65;10.38;;;;;;;10.57;50.30;100560.62;7708780;32;39143;-77
2022/03/16 16:16:39;;;;;;;17.37;10.80;;;;;;;10.76;49.88;100559.22;7709288;32;36945;-79
2022/03/16 16:20:56;;;;;;;14.82;9.80;;;;;;;10.79;50.15;100561.44;7711672;32;39854;-78
2022/03/16 16:25:12;;;;;;;15.65;10.32;;;;;;;10.56;50.57;100568.00;7708623;32;40798;-78
2022/03/16 16:29:46;;;;;;;16.23;10.35;;;;;;;10.48;51.23;100573.88;7694382;32;39132;-78
2022/03/16 16:34:02;;;;;;;17.50;11.55;;;;;;;10.68;51.40;100568.69;7708127;32;37241;-77
2022/03/16 16:38:19;;;;;;;20.37;13.07;;;;;;;10.56;50.35;100586.25;7708217;32;39493;-77
2022/03/16 16:43:26;;;;;;;16.98;11.25;;;;;;;10.62;49.78;100579.78;7707539;32;39698;-77
2022/03/16 16:47:17;;;;;;;21.25;13.73;;;;;;;10.59;49.97;100585.72;7697688;32;38890;-78
2022/03/16 16:51:33;;;;;;;19.58;11.93;;;;;;;10.57;50.46;100587.88;7695579;32;38214;-77
2022/03/16 16:55:49;;;;;;;20.23;12.30;;;;;;;10.43;50.58;100593.69;7707330;32;39394;-77
2022/03/16 17:00:06;;;;;;;19.12;12.18;;;;;;;10.58;50.22;100590.38;7685304;32;39948;-77
2022/03/16 17:04:24;;;;;;;18.80;12.93;;;;;;;10.62;53.52;100596.13;7705122;32;38778;-76
2022/03/16 17:08:43;;;;;;;20.37;13.05;;;;;;;10.45;51.57;100618.81;7712045;32;36954;-76
2022/03/16 17:13:00;;;;;;;21.45;13.45;;;;;;;10.03;52.71;100624.69;7711857;32;39512;-76
2022/03/16 17:17:17;;;;;;;20.80;13.13;;;;;;;10.15;52.41;100622.69;7711567;32;39876;-76
2022/03/16 17:21:35;;;;;;;24.90;13.70;;;;;;;10.01;53.04;100640.44;7711356;32;38117;-77
2022/03/16 17:25:52;;;;;;;20.62;12.80;;;;;;;9.75;54.03;100642.75;7711473;32;38008;-76
2022/03/16 17:30:08;;;;;;;18.65;12.65;;;;;;;9.90;53.48;100641.34;7711421;32;40096;-76
2022/03/16 17:34:24;;;;;;;19.12;12.07;;;;;;;9.86;53.74;100645.66;7710672;32;39391;-76
2022/03/16 17:38:42;;;;;;;17.77;11.88;;;;;;;9.88;53.45;100663.41;7711646;32;37785;-74
2022/03/16 17:47:34;;;;;;;17.10;11.77;;;;;;;9.86;53.24;100675.59;7711533;32;40169;-76
2022/03/16 17:51:50;;;;;;;17.50;11.30;;;;;;;9.72;53.47;100667.72;7711099;32;39642;-76
2022/03/16 18:00:43;;;;;;;17.15;11.20;;;;;;;9.76;52.82;100677.09;7711236;32;38083;-75
2022/03/16 18:04:59;;;;;;;14.05;9.27;;;;;;;9.73;52.99;100679.47;7711329;32;38325;-75
2022/03/16 18:09:15;;;;;;;15.25;9.73;;;;;;;9.75;52.54;100682.78;7697933;32;40737;-76
2022/03/16 18:13:32;;;;;;;15.05;9.35;;;;;;;9.88;51.52;100685.19;7696827;32;37822;-76
2022/03/16 18:17:48;;;;;;;15.93;8.68;;;;;;;9.90;51.50;100693.09;7711285;32;37822;-75
2022/03/16 18:26:41;;;;;;;12.23;8.18;;;;;;;9.70;51.32;100708.00;7711100;32;40041;-75
2022/03/16 18:30:58;;;;;;;10.00;7.32;;;;;;;9.64;51.61;100709.00;7711087;32;38500;-75
2022/03/16 18:35:15;;;;;;;10.70;6.97;;;;;;;9.83;50.25;100708.78;7710387;32;37932;-75
2022/03/16 18:39:32;;;;;;;12.52;7.62;;;;;;;9.80;50.05;100703.84;7702134;32;39880;-75
2022/03/16 18:43:53;;;;;;;13.13;7.72;;;;;;;9.73;50.49;100701.25;7682406;32;39461;-75
2022/03/16 18:48:09;;;;;;;12.25;8.07;;;;;;;9.57;50.72;100705.56;7686343;32;38036;-75
2022/03/16 18:52:25;;;;;;;12.48;7.70;;;;;;;9.61;49.86;100717.63;7710440;32;37820;-75
2022/03/16 18:56:41;;;;;;;21.45;15.00;;;;;;;9.53;49.84;100723.47;7710476;32;39259;-75
2022/03/16 19:00:58;;;;;;;18.90;11.85;;;;;;;9.49;51.85;100719.56;7710109;32;40752;-75
2022/03/16 19:05:14;;;;;;;14.10;8.73;;;;;;;9.21;52.03;100734.81;7710714;32;37958;-75
2022/03/16 19:09:31;;;;;;;13.98;9.38;;;;;;;9.38;49.97;100724.81;7700022;32;36837;-75
2022/03/16 19:13:48;;;;;;;12.48;8.98;;;;;;;9.11;50.02;100729.94;7707197;32;39432;-75
2022/03/16 19:18:07;;;;;;;13.52;10.00;;;;;;;9.13;50.04;100746.84;7709639;32;39929;-75
2022/03/16 19:22:23;;;;;;;13.95;9.15;;;;;;;8.84;50.72;100740.50;7709124;32;37829;-76
2022/03/16 19:26:41;;;;;;;14.23;9.82;;;;;;;8.78;51.35;100747.72;7710385;32;37806;-77
2022/03/16 19:30:58;;;;;;;12.27;7.82;;;;;;;8.86;51.09;100749.25;7700516;32;39213;-75
2022/03/16 19:35:15;;;;;;;11.10;7.28;;;;;;;8.83;50.66;100755.19;7696492;32;39621;-75
2022/03/16 19:39:31;;;;;;;11.05;7.18;;;;;;;8.74;50.71;100745.69;7709830;32;37235;-75
2022/03/16 19:43:47;;;;;;;11.10;7.80;;;;;;;8.56;50.72;100755.63;7710401;32;38067;-76
2022/03/16 19:48:04;;;;;;;10.15;7.75;;;;;;;8.52;50.96;100754.44;7709997;32;39293;-75
2022/03/16 19:52:20;;;;;;;11.20;7.80;;;;;;;8.54;50.79;100768.63;7709602;32;40009;-75
2022/03/16 19:56:38;;;;;;;11.88;7.47;;;;;;;8.31;51.29;100768.53;7709571;32;38402;-76
2022/03/16 20:00:56;;;;;;;11.68;7.65;;;;;;;8.31;51.19;100768.53;7709622;32;38871;-75
2022/03/16 20:05:14;;;;;;;10.80;7.32;;;;;;;8.15;51.78;100775.47;7709575;32;41456;-75
2022/03/16 20:09:30;;;;;;;12.05;7.00;;;;;;;8.07;52.18;100782.91;7709330;32;39611;-75
2022/03/16 20:13:47;;;;;;;11.27;7.12;;;;;;;7.92;52.46;100781.62;7709487;32;37543;-74
2022/03/16 20:18:03;;;;;;;10.63;7.22;;;;;;;7.85;52.61;100784.47;7695601;32;37904;-74
2022/03/16 20:22:21;;;;;;;11.07;7.72;;;;;;;7.81;52.38;100778.66;7709109;32;40183;-75
2022/03/16 20:26:38;;;;;;;10.63;7.30;;;;;;;7.84;53.38;100783.63;7710828;32;39917;-75